createdAt,value
2022-09-23T00:01:21.889Z,3.23
2022-09-23T00:03:50.956Z,3.57
2022-09-23T00:06:20.451Z,3.30
2022-09-23T00:08:49.460Z,3.97
2022-09-23T00:11:19.537Z,3.50
2022-09-23T00:13:49.483Z,3.70
2022-09-23T00:16:22.201Z,3.57
2022-09-23T00:18:50.521Z,3.20
2022-09-23T00:21:19.523Z,3.50
2022-09-23T00:23:47.326Z,3.30
2022-09-23T00:26:17.004Z,2.93
2022-09-23T00:28:44.999Z,3.60
2022-09-23T00:31:15.508Z,2.60
2022-09-23T00:33:44.884Z,3.00
2022-09-23T00:36:16.110Z,3.83
2022-09-23T00:38:44.529Z,3.17
2022-09-23T00:41:14.441Z,3.50
2022-09-23T00:43:43.956Z,2.80
2022-09-23T00:46:17.584Z,3.33
2022-09-23T00:48:47.224Z,3.53
2022-09-23T00:51:19.279Z,3.10
2022-09-23T00:53:49.014Z,2.87
2022-09-23T00:56:17.334Z,3.00
2022-09-23T00:58:47.279Z,2.90
2022-09-23T01:01:15.080Z,3.33
2022-09-23T01:03:45.377Z,3.20
2022-09-23T01:06:15.239Z,2.57
2022-09-23T01:08:46.073Z,2.60
2022-09-23T01:11:25.947Z,2.70
2022-09-23T01:14:02.575Z,2.97
2022-09-23T01:16:37.475Z,2.43
2022-09-23T01:19:22.374Z,3.00
2022-09-23T01:21:57.016Z,2.67
2022-09-23T01:24:48.120Z,2.53
2022-09-23T01:27:26.647Z,2.77
2022-09-23T01:30:11.006Z,2.93
2022-09-23T01:33:05.617Z,3.00
2022-09-23T01:35:56.517Z,2.90
2022-09-23T01:38:36.257Z,3.00
2022-09-23T01:41:13.566Z,2.70
2022-09-23T01:43:49.286Z,3.13
2022-09-23T01:46:22.607Z,3.47
2022-09-23T01:48:57.409Z,3.03
2022-09-23T01:51:28.088Z,2.83
2022-09-23T01:54:03.993Z,2.93
2022-09-23T01:56:36.750Z,2.60
2022-09-23T01:59:12.533Z,2.70
2022-09-23T02:01:45.092Z,3.13
2022-09-23T02:04:20.463Z,2.93
2022-09-23T02:06:53.235Z,2.87
2022-09-23T02:09:25.706Z,2.80
2022-09-23T02:12:00.437Z,2.50
2022-09-23T02:14:34.219Z,3.93
2022-09-23T02:17:08.816Z,3.10
2022-09-23T02:19:44.523Z,2.47
2022-09-23T02:22:17.886Z,2.80
2022-09-23T02:24:45.843Z,2.80
2022-09-23T02:27:22.327Z,2.20
2022-09-23T02:29:56.493Z,2.30
2022-09-23T02:32:29.222Z,2.90
2022-09-23T02:35:03.824Z,3.00
2022-09-23T02:37:40.934Z,3.10
2022-09-23T02:40:15.514Z,2.90
2022-09-23T02:43:06.010Z,3.03
2022-09-23T02:45:35.448Z,2.50
2022-09-23T02:48:08.019Z,3.37
2022-09-23T02:50:38.544Z,2.90
2022-09-23T02:53:08.462Z,2.67
2022-09-23T02:55:36.321Z,3.30
2022-09-23T02:58:05.507Z,2.87
2022-09-23T03:00:45.379Z,3.10
2022-09-23T03:03:24.180Z,3.30
2022-09-23T03:05:57.542Z,3.10
2022-09-23T03:08:36.737Z,3.40
2022-09-23T03:11:07.440Z,3.97
2022-09-23T03:13:51.077Z,3.00
2022-09-23T03:16:30.926Z,3.00
2022-09-23T03:19:13.302Z,3.23
2022-09-23T03:21:47.826Z,3.17
2022-09-23T03:24:16.807Z,4.57
2022-09-23T03:26:48.071Z,3.27
2022-09-23T03:29:17.845Z,3.40
2022-09-23T03:31:45.934Z,3.03
2022-09-23T03:34:17.683Z,3.60
2022-09-23T03:36:53.330Z,3.33
2022-09-23T03:39:30.839Z,3.70
2022-09-23T03:42:01.829Z,3.70
2022-09-23T03:44:30.247Z,3.73
2022-09-23T03:47:00.354Z,3.60
2022-09-23T03:49:32.935Z,3.67
2022-09-23T03:52:03.150Z,3.30
2022-09-23T03:54:30.847Z,3.57
2022-09-23T03:56:59.306Z,3.43
2022-09-23T03:59:27.472Z,3.43
2022-09-23T04:01:55.439Z,3.57
2022-09-23T04:04:23.064Z,4.03
2022-09-23T04:06:50.651Z,3.90
2022-09-23T04:09:19.553Z,3.47
2022-09-23T04:11:47.113Z,3.20
2022-09-23T04:14:15.556Z,3.83
2022-09-23T04:16:43.209Z,3.37
2022-09-23T04:19:11.790Z,3.67
2022-09-23T04:21:40.314Z,3.20
2022-09-23T04:24:09.278Z,3.13
2022-09-23T04:26:39.110Z,3.83
2022-09-23T04:29:07.597Z,2.90
2022-09-23T04:31:35.806Z,3.63
2022-09-23T04:34:03.727Z,3.63
2022-09-23T04:36:31.328Z,3.70
2022-09-23T04:38:58.998Z,3.47
2022-09-23T04:41:26.909Z,3.90
2022-09-23T04:43:57.357Z,3.53
2022-09-23T04:46:25.259Z,3.63
2022-09-23T04:48:52.964Z,3.67
2022-09-23T04:51:22.317Z,4.50
2022-09-23T04:53:52.297Z,3.60
2022-09-23T04:56:22.396Z,3.57
2022-09-23T04:58:51.471Z,4.03
2022-09-23T05:01:24.724Z,5.73
2022-09-23T05:03:53.957Z,3.77
2022-09-23T05:06:22.592Z,3.77
2022-09-23T05:08:52.184Z,4.20
2022-09-23T05:11:20.383Z,3.63
2022-09-23T05:13:48.238Z,4.40
2022-09-23T05:16:16.274Z,3.97
2022-09-23T05:18:46.437Z,4.73
2022-09-23T05:21:15.885Z,4.43
2022-09-23T05:23:47.931Z,3.23
2022-09-23T05:26:16.602Z,3.87
2022-09-23T05:28:44.397Z,3.93
2022-09-23T05:31:19.384Z,4.30
2022-09-23T05:33:51.753Z,4.40
2022-09-23T05:36:20.622Z,5.00
2022-09-23T05:38:49.855Z,4.70
2022-09-23T05:41:18.703Z,4.33
2022-09-23T05:43:47.523Z,4.13
2022-09-23T05:46:17.321Z,4.10
2022-09-23T05:48:45.804Z,4.57
2022-09-23T05:51:17.199Z,4.70
2022-09-23T05:53:45.758Z,4.60
2022-09-23T05:56:13.875Z,4.67
2022-09-23T05:58:41.723Z,4.23
2022-09-23T06:01:13.607Z,5.33
2022-09-23T06:03:41.753Z,4.40
2022-09-23T06:06:14.661Z,5.13
2022-09-23T06:08:43.763Z,5.17
2022-09-23T06:11:12.310Z,4.47
2022-09-23T06:13:40.783Z,4.80
2022-09-23T06:16:10.444Z,5.00
2022-09-23T06:18:40.120Z,4.90
2022-09-23T06:21:08.574Z,5.23
2022-09-23T06:23:39.045Z,5.07
2022-09-23T06:26:11.446Z,4.70
2022-09-23T06:28:40.777Z,4.60
2022-09-23T06:31:13.507Z,4.30
2022-09-23T06:33:41.967Z,4.90
2022-09-23T06:36:10.649Z,5.27
2022-09-23T06:38:39.942Z,5.43
2022-09-23T06:41:09.050Z,4.73
2022-09-23T06:43:36.647Z,4.53
2022-09-23T06:46:06.135Z,4.83
2022-09-23T06:48:35.369Z,5.23
2022-09-23T06:51:07.094Z,4.20
2022-09-23T06:53:35.293Z,4.90
2022-09-23T06:56:04.694Z,4.57
2022-09-23T06:58:34.970Z,5.17
2022-09-23T07:01:03.202Z,5.30
2022-09-23T07:03:31.702Z,4.87
2022-09-23T07:06:00.277Z,4.67
2022-09-23T07:08:30.158Z,4.47
2022-09-23T07:10:59.602Z,4.63
2022-09-23T07:13:28.527Z,4.60
2022-09-23T07:16:00.227Z,5.47
2022-09-23T07:18:35.604Z,4.47
2022-09-23T07:21:09.275Z,4.40
2022-09-23T07:23:37.892Z,5.17
2022-09-23T07:26:07.741Z,4.67
2022-09-23T07:28:36.043Z,4.90
2022-09-23T07:31:10.990Z,5.07
2022-09-23T07:33:44.010Z,5.40
2022-09-23T07:36:13.972Z,5.07
2022-09-23T07:38:45.456Z,5.40
2022-09-23T07:41:16.071Z,5.23
2022-09-23T07:43:44.277Z,5.27
2022-09-23T07:46:16.261Z,5.13
2022-09-23T07:48:45.706Z,4.87
2022-09-23T07:51:17.625Z,4.90
2022-09-23T07:53:48.204Z,5.20
2022-09-23T07:56:16.307Z,5.37
2022-09-23T07:58:43.993Z,4.70
2022-09-23T08:01:13.823Z,4.60
2022-09-23T08:03:41.420Z,4.90
2022-09-23T08:06:12.354Z,4.23
2022-09-23T08:08:43.462Z,4.40
2022-09-23T08:11:14.183Z,4.50
2022-09-23T08:13:42.250Z,4.97
2022-09-23T08:16:10.560Z,4.60
2022-09-23T08:18:39.613Z,4.83
2022-09-23T08:21:07.187Z,4.57
2022-09-23T08:23:34.749Z,4.90
2022-09-23T08:26:04.999Z,4.77
2022-09-23T08:28:35.081Z,5.03
2022-09-23T08:31:02.810Z,4.87
2022-09-23T08:33:30.853Z,4.27
2022-09-23T08:36:02.529Z,4.07
2022-09-23T08:38:30.805Z,3.83
2022-09-23T08:41:08.885Z,4.37
2022-09-23T08:43:39.601Z,3.93
2022-09-23T08:46:11.883Z,3.90
2022-09-23T08:48:44.129Z,4.70
2022-09-23T08:51:16.915Z,3.87
2022-09-23T08:53:45.655Z,3.72
2022-09-23T08:56:15.827Z,4.10
2022-09-23T08:58:54.815Z,4.28
2022-09-23T09:01:26.979Z,4.57
2022-09-23T09:03:57.145Z,4.05
2022-09-23T09:06:31.975Z,4.00
2022-09-23T09:09:02.439Z,4.03
2022-09-23T09:11:36.658Z,3.92
2022-09-23T09:14:19.162Z,4.50
2022-09-23T09:17:00.106Z,4.88
2022-09-23T09:19:52.091Z,5.32
2022-09-23T09:22:25.967Z,5.55
2022-09-23T09:24:58.908Z,5.43
2022-09-23T09:27:26.531Z,5.60
2022-09-23T09:29:56.430Z,5.72
2022-09-23T09:32:34.680Z,5.43
2022-09-23T09:35:08.966Z,5.85
2022-09-23T09:37:42.309Z,5.68
2022-09-23T09:40:13.003Z,6.13
2022-09-23T09:42:42.367Z,6.40
2022-09-23T09:45:19.666Z,6.37
2022-09-23T09:47:57.319Z,5.93
2022-09-23T09:50:44.340Z,6.00
2022-09-23T09:53:24.707Z,6.67
2022-09-23T09:56:06.496Z,6.67
2022-09-23T09:58:43.833Z,5.83
2022-09-23T10:01:20.287Z,8.10
2022-09-23T10:03:49.890Z,7.40
2022-09-23T10:06:20.763Z,7.10
2022-09-23T10:09:05.745Z,7.03
2022-09-23T10:11:33.781Z,7.70
2022-09-23T10:14:06.073Z,7.20
2022-09-23T10:16:35.281Z,7.57
2022-09-23T10:19:04.331Z,7.73
2022-09-23T10:21:37.933Z,8.10
2022-09-23T10:24:08.789Z,7.67
2022-09-23T10:26:52.082Z,7.40
2022-09-23T10:29:25.937Z,8.17
2022-09-23T10:32:19.919Z,7.37
2022-09-23T10:34:52.434Z,6.97
2022-09-23T10:37:32.541Z,7.73
2022-09-23T10:40:30.313Z,7.20
2022-09-23T10:43:33.450Z,6.83
2022-09-23T10:46:23.867Z,6.83
2022-09-23T10:49:08.905Z,7.03
2022-09-23T10:51:45.469Z,6.30
2022-09-23T10:54:22.475Z,6.73
2022-09-23T10:57:01.914Z,7.57
2022-09-23T10:59:50.084Z,6.03
2022-09-23T11:02:41.855Z,6.57
2022-09-23T11:05:20.825Z,5.93
2022-09-23T11:07:57.375Z,6.87
2022-09-23T11:10:49.767Z,6.97
2022-09-23T11:13:36.130Z,6.17
2022-09-23T11:16:12.273Z,5.60
2022-09-23T11:18:53.259Z,6.37
2022-09-23T11:21:38.324Z,6.50
2022-09-23T11:24:24.853Z,5.73
2022-09-23T11:27:07.417Z,5.10
2022-09-23T11:30:11.374Z,4.77
2022-09-23T11:33:15.052Z,4.10
2022-09-23T11:35:47.705Z,4.07
2022-09-23T11:38:21.249Z,4.50
2022-09-23T11:40:54.783Z,5.10
2022-09-23T11:43:24.495Z,4.57
2022-09-23T11:45:59.545Z,3.67
2022-09-23T11:48:34.860Z,4.05
2022-09-23T11:51:05.940Z,3.70
2022-09-23T11:53:41.711Z,3.73
2022-09-23T11:56:26.308Z,3.73
2022-09-23T11:59:04.533Z,4.20
2022-09-23T12:01:39.607Z,3.80
2022-09-23T12:04:21.079Z,3.97
2022-09-23T12:06:52.571Z,3.40
2022-09-23T12:09:40.912Z,3.70
2022-09-23T12:12:18.567Z,3.60
2022-09-23T12:14:57.482Z,4.57
2022-09-23T12:17:58.294Z,3.33
2022-09-23T12:20:43.618Z,3.60
2022-09-23T12:23:27.364Z,3.43
2022-09-23T12:26:01.984Z,3.40
2022-09-23T12:28:36.053Z,3.40
2022-09-23T12:31:06.826Z,2.73
2022-09-23T12:33:37.323Z,2.63
2022-09-23T12:36:06.854Z,2.63
2022-09-23T12:38:37.383Z,2.77
2022-09-23T12:41:21.939Z,3.40
2022-09-23T12:43:54.831Z,3.50
2022-09-23T12:46:25.924Z,3.83
2022-09-23T12:49:03.560Z,3.17
2022-09-23T12:51:32.198Z,3.30
2022-09-23T12:54:16.199Z,3.00
2022-09-23T12:57:12.757Z,2.93
2022-09-23T13:00:14.571Z,3.27
2022-09-23T13:02:44.587Z,3.47
2022-09-23T13:05:40.511Z,2.30
2022-09-23T13:08:13.619Z,2.37
2022-09-23T13:10:45.891Z,2.60
2022-09-23T13:13:22.469Z,2.30
2022-09-23T13:15:50.236Z,3.37
2022-09-23T13:18:45.744Z,3.13
2022-09-23T13:21:20.104Z,2.80
2022-09-23T13:24:19.242Z,2.90
2022-09-23T13:26:48.403Z,2.70
2022-09-23T13:29:20.287Z,3.10
2022-09-23T13:31:48.452Z,3.10
2022-09-23T13:34:20.519Z,2.70
2022-09-23T13:36:49.914Z,2.50
2022-09-23T13:39:23.238Z,2.90
2022-09-23T13:41:53.562Z,3.23
2022-09-23T13:44:22.308Z,2.80
2022-09-23T13:46:52.691Z,2.30
2022-09-23T13:49:24.464Z,3.93
2022-09-23T13:51:54.415Z,2.73
2022-09-23T13:54:28.891Z,2.97
2022-09-23T13:56:57.359Z,3.23
2022-09-23T13:59:28.063Z,2.83
2022-09-23T14:02:08.099Z,2.47
2022-09-23T14:04:36.052Z,2.63
2022-09-23T14:07:05.677Z,2.97
2022-09-23T14:09:35.615Z,3.17
2022-09-23T14:12:06.482Z,2.73
2022-09-23T14:14:37.435Z,3.27
2022-09-23T14:17:07.342Z,3.30
2022-09-23T14:19:36.950Z,2.80
2022-09-23T14:22:10.374Z,2.73
2022-09-23T14:24:40.143Z,3.03
2022-09-23T14:27:15.834Z,2.13
2022-09-23T14:29:45.417Z,2.87
2022-09-23T14:32:15.366Z,2.90
2022-09-23T14:34:45.860Z,1.97
2022-09-23T14:37:41.778Z,2.50
2022-09-23T14:40:15.512Z,2.20
2022-09-23T14:42:46.428Z,2.60
2022-09-23T14:45:17.766Z,2.70
2022-09-23T14:47:49.461Z,2.60
2022-09-23T14:50:40.631Z,2.67
2022-09-23T14:53:35.684Z,2.70
2022-09-23T14:56:25.341Z,2.60
2022-09-23T14:58:55.386Z,2.53
2022-09-23T15:01:33.925Z,2.50
2022-09-23T15:04:12.614Z,2.80
2022-09-23T15:06:42.599Z,2.50
2022-09-23T15:09:20.050Z,2.60
2022-09-23T15:11:48.088Z,2.27
2022-09-23T15:14:36.678Z,2.30
2022-09-23T15:17:07.318Z,2.70
2022-09-23T15:19:37.339Z,2.90
2022-09-23T15:22:09.554Z,2.53
2022-09-23T15:24:42.554Z,2.90
2022-09-23T15:27:27.846Z,2.27
2022-09-23T15:29:58.762Z,2.30
2022-09-23T15:32:26.342Z,2.30
2022-09-23T15:34:54.047Z,2.47
2022-09-23T15:37:21.675Z,2.33
2022-09-23T15:39:51.002Z,2.43
2022-09-23T15:42:18.747Z,2.73
2022-09-23T15:44:46.311Z,2.73
2022-09-23T15:47:18.801Z,3.03
2022-09-23T15:49:48.045Z,2.80
2022-09-23T15:52:17.636Z,3.00
2022-09-23T15:54:46.020Z,2.90
2022-09-23T15:57:14.999Z,2.80
2022-09-23T15:59:43.123Z,2.80
2022-09-23T16:02:19.045Z,2.80
2022-09-23T16:04:52.559Z,3.00
2022-09-23T16:07:21.246Z,2.63
2022-09-23T16:09:48.850Z,2.30
2022-09-23T16:12:18.091Z,2.77
2022-09-23T16:14:45.839Z,3.17
2022-09-23T16:17:14.839Z,2.50
2022-09-23T16:19:43.477Z,2.23
2022-09-23T16:22:15.400Z,2.60
2022-09-23T16:24:43.157Z,2.50
2022-09-23T16:27:13.793Z,2.80
2022-09-23T16:29:42.781Z,2.30
2022-09-23T16:32:10.875Z,2.70
2022-09-23T16:34:38.515Z,2.77
2022-09-23T16:37:06.830Z,2.67
2022-09-23T16:39:34.560Z,2.50
2022-09-23T16:42:02.267Z,3.80
2022-09-23T16:44:29.924Z,3.20
2022-09-23T16:46:58.806Z,3.30
2022-09-23T16:49:27.258Z,3.47
2022-09-23T16:51:54.923Z,3.00
2022-09-23T16:54:23.848Z,2.20
2022-09-23T16:56:52.288Z,2.30
2022-09-23T16:59:19.928Z,2.30
2022-09-23T17:02:05.247Z,2.47
2022-09-23T17:04:34.256Z,2.90
2022-09-23T17:07:01.909Z,2.50
2022-09-23T17:09:30.267Z,2.00
2022-09-23T17:12:05.789Z,1.80
2022-09-23T17:14:33.647Z,2.30
2022-09-23T17:17:01.322Z,13.60
2022-09-23T17:19:29.107Z,7.97
2022-09-23T17:21:58.048Z,5.80
2022-09-23T17:24:25.592Z,3.60
2022-09-23T17:26:53.631Z,3.67
2022-09-23T17:29:21.460Z,2.90
2022-09-23T17:31:49.205Z,2.83
2022-09-23T17:34:19.090Z,2.53
2022-09-23T17:36:46.982Z,2.50
2022-09-23T17:39:16.557Z,2.40
2022-09-23T17:41:45.462Z,3.00
2022-09-23T17:44:14.125Z,2.60
2022-09-23T17:46:41.760Z,3.03
2022-09-23T17:49:09.638Z,2.63
2022-09-23T17:51:37.330Z,2.73
2022-09-23T17:54:05.468Z,2.80
2022-09-23T17:56:34.491Z,2.97
2022-09-23T17:59:03.137Z,2.87
2022-09-23T18:01:31.280Z,2.67
2022-09-23T18:04:00.326Z,2.87
2022-09-23T18:06:31.525Z,3.13
2022-09-23T18:09:01.472Z,3.50
2022-09-23T18:11:30.790Z,3.47
2022-09-23T18:14:01.578Z,3.10
2022-09-23T18:16:31.175Z,3.60
2022-09-23T18:19:00.980Z,3.33
2022-09-23T18:21:31.566Z,4.20
2022-09-23T18:24:28.179Z,3.57
2022-09-23T18:26:49.620Z,4.00
2022-09-23T18:29:19.603Z,4.07
2022-09-23T18:31:49.123Z,3.70
2022-09-23T18:34:18.291Z,3.93
2022-09-23T18:36:46.177Z,4.23
2022-09-23T18:39:13.790Z,5.43
2022-09-23T18:41:41.657Z,6.27
2022-09-23T18:44:09.906Z,4.80
2022-09-23T18:46:39.315Z,4.50
2022-09-23T18:49:24.510Z,4.30
2022-09-23T18:51:54.527Z,4.27
2022-09-23T18:54:23.389Z,4.10
2022-09-23T18:56:52.604Z,3.73
2022-09-23T18:59:23.759Z,4.83
2022-09-23T19:01:54.776Z,5.40
2022-09-23T19:04:24.389Z,5.87
2022-09-23T19:06:53.546Z,5.50
2022-09-23T19:09:21.178Z,5.50
2022-09-23T19:11:52.068Z,6.10
2022-09-23T19:14:22.641Z,6.00
2022-09-23T19:16:50.933Z,6.37
2022-09-23T19:19:19.952Z,6.60
2022-09-23T19:21:47.664Z,6.00
2022-09-23T19:24:19.813Z,5.93
2022-09-23T19:26:48.439Z,5.20
2022-09-23T19:29:19.371Z,5.33
2022-09-23T19:31:47.135Z,4.87
2022-09-23T19:34:17.606Z,5.77
2022-09-23T19:36:48.707Z,5.10
2022-09-23T19:39:17.907Z,4.43
2022-09-23T19:41:46.013Z,4.30
2022-09-23T19:44:14.155Z,3.50
2022-09-23T19:46:45.074Z,3.77
2022-09-23T19:49:13.653Z,3.47
2022-09-23T19:51:43.900Z,4.87
2022-09-23T19:54:14.069Z,4.20
2022-09-23T19:56:41.690Z,4.20
2022-09-23T19:59:09.476Z,4.40
2022-09-23T20:01:37.371Z,3.83
2022-09-23T20:04:05.607Z,3.83
2022-09-23T20:06:36.122Z,5.03
2022-09-23T20:09:05.346Z,10.07
2022-09-23T20:11:34.558Z,6.87
2022-09-23T20:14:04.866Z,6.10
2022-09-23T20:16:34.881Z,5.47
2022-09-23T20:19:04.026Z,6.40
2022-09-23T20:21:33.456Z,6.70
2022-09-23T20:24:01.839Z,6.83
2022-09-23T20:26:46.992Z,5.97
2022-09-23T20:29:15.954Z,5.93
2022-09-23T20:31:44.467Z,6.33
2022-09-23T20:34:12.220Z,6.47
2022-09-23T20:36:41.251Z,6.93
2022-09-23T20:39:09.931Z,6.43
2022-09-23T20:41:39.504Z,6.33
2022-09-23T20:44:12.110Z,6.57
2022-09-23T20:46:47.485Z,6.33
2022-09-23T20:49:16.131Z,6.20
2022-09-23T20:51:43.724Z,5.90
2022-09-23T20:54:12.018Z,6.50
2022-09-23T20:56:39.634Z,6.93
2022-09-23T20:59:07.433Z,6.43
2022-09-23T21:01:36.960Z,7.73
2022-09-23T21:04:07.560Z,7.00
2022-09-23T21:06:35.764Z,6.57
2022-09-23T21:09:04.082Z,6.47
2022-09-23T21:11:32.080Z,7.00
2022-09-23T21:14:01.455Z,6.93
2022-09-23T21:16:29.621Z,7.27
2022-09-23T21:18:58.574Z,7.23
2022-09-23T21:21:27.902Z,7.53
2022-09-23T21:24:07.026Z,7.07
2022-09-23T21:26:47.278Z,7.67
2022-09-23T21:29:14.917Z,7.13
2022-09-23T21:31:42.680Z,6.10
2022-09-23T21:34:12.470Z,6.50
2022-09-23T21:36:43.993Z,6.27
2022-09-23T21:39:12.772Z,5.97
2022-09-23T21:41:41.113Z,6.43
2022-09-23T21:44:08.968Z,6.57
2022-09-23T21:46:37.431Z,6.40
2022-09-23T21:49:05.924Z,6.20
2022-09-23T21:51:40.665Z,5.87
2022-09-23T21:54:13.534Z,6.20
2022-09-23T21:56:41.387Z,6.60
2022-09-23T21:59:09.309Z,6.07
2022-09-23T22:01:38.892Z,6.60
2022-09-23T22:04:10.205Z,6.63
2022-09-23T22:06:40.248Z,6.97
2022-09-23T22:09:12.778Z,7.10
2022-09-23T22:11:58.682Z,7.03
2022-09-23T22:14:27.177Z,7.07
2022-09-23T22:16:57.213Z,6.17
2022-09-23T22:19:27.107Z,6.20
2022-09-23T22:21:55.884Z,6.60
2022-09-23T22:24:25.226Z,6.23
2022-09-23T22:26:53.207Z,6.20
2022-09-23T22:29:38.445Z,6.00
2022-09-23T22:32:28.392Z,6.30
2022-09-23T22:34:56.079Z,5.50
2022-09-23T22:37:27.193Z,5.20
2022-09-23T22:39:56.225Z,7.37
2022-09-23T22:42:24.049Z,5.77
2022-09-23T22:44:52.498Z,5.87
2022-09-23T22:47:21.172Z,5.23
2022-09-23T22:49:49.146Z,5.20
2022-09-23T22:52:21.182Z,5.27
2022-09-23T22:54:48.906Z,5.40
2022-09-23T22:57:19.184Z,5.43
2022-09-23T22:59:48.018Z,5.87
2022-09-23T23:02:16.562Z,5.87
2022-09-23T23:04:45.400Z,5.67
2022-09-23T23:07:14.327Z,5.77
2022-09-23T23:09:42.133Z,5.47
2022-09-23T23:12:09.754Z,5.60
2022-09-23T23:14:39.095Z,5.97
2022-09-23T23:17:07.550Z,5.67
2022-09-23T23:19:37.067Z,6.13
2022-09-23T23:22:05.182Z,5.83
2022-09-23T23:24:32.790Z,5.83
2022-09-23T23:27:00.463Z,5.53
2022-09-23T23:29:28.100Z,5.60
2022-09-23T23:31:57.167Z,5.53
2022-09-23T23:34:24.808Z,5.63
2022-09-23T23:36:54.786Z,5.00
2022-09-23T23:39:24.580Z,5.50
2022-09-23T23:41:54.849Z,5.30
2022-09-23T23:44:23.537Z,4.73
2022-09-23T23:46:51.323Z,5.33
2022-09-23T23:49:20.486Z,5.27
2022-09-23T23:51:48.299Z,4.90
2022-09-23T23:54:16.429Z,5.03
2022-09-23T23:56:44.575Z,5.27
2022-09-23T23:59:12.451Z,5.20
